TimeCST,TemperatureF,Dew PointF,Humidity,Sea Level PressureIn,VisibilityMPH,Wind Direction,Wind SpeedMPH,Gust SpeedMPH,PrecipitationIn,Events,Conditions,WindDirDegrees,DateUTC
12:15 AM,24.8,15.8,69,30.13,10.0,West,5.8,-,N/A,,Clear,260,2014-01-19 06:15:00
12:35 AM,23.0,14.0,68,30.13,10.0,West,8.1,-,N/A,,Clear,270,2014-01-19 06:35:00
12:55 AM,23.0,14.0,68,30.11,10.0,West,6.9,-,N/A,,Clear,280,2014-01-19 06:55:00
1:15 AM,26.6,17.6,69,30.11,10.0,WNW,5.8,-,N/A,,Clear,290,2014-01-19 07:15:00
1:35 AM,26.6,14.0,59,30.10,10.0,WSW,5.8,-,N/A,,Clear,250,2014-01-19 07:35:00
1:55 AM,24.8,14.0,64,30.10,10.0,SW,3.5,-,N/A,,Clear,220,2014-01-19 07:55:00
2:15 AM,21.2,14.0,74,30.10,10.0,SSW,4.6,-,N/A,,Clear,200,2014-01-19 08:15:00
2:35 AM,21.2,15.8,80,30.10,10.0,SW,8.1,-,N/A,,Clear,230,2014-01-19 08:35:00
2:55 AM,24.8,15.8,69,30.10,10.0,WSW,10.4,-,N/A,,Clear,240,2014-01-19 08:55:00
3:15 AM,26.6,15.8,64,30.09,10.0,West,6.9,-,N/A,,Clear,260,2014-01-19 09:15:00
3:35 AM,23.0,12.2,63,30.09,10.0,West,5.8,-,N/A,,Clear,270,2014-01-19 09:35:00
3:55 AM,23.0,14.0,68,30.09,10.0,West,6.9,-,N/A,,Clear,270,2014-01-19 09:55:00
4:15 AM,24.8,12.2,59,30.07,10.0,WSW,8.1,-,N/A,,Clear,250,2014-01-19 10:15:00
4:35 AM,24.8,12.2,59,30.06,10.0,West,9.2,-,N/A,,Clear,260,2014-01-19 10:35:00
4:55 AM,24.8,12.2,59,30.05,10.0,WSW,6.9,-,N/A,,Clear,240,2014-01-19 10:55:00
5:15 AM,23.0,12.2,63,30.04,10.0,WSW,8.1,-,N/A,,Clear,250,2014-01-19 11:15:00
5:35 AM,21.2,10.4,63,30.04,10.0,WSW,8.1,-,N/A,,Clear,240,2014-01-19 11:35:00
5:55 AM,21.2,10.4,63,30.03,10.0,SW,3.5,-,N/A,,Clear,230,2014-01-19 11:55:00
6:15 AM,21.2,12.2,68,30.02,10.0,WSW,4.6,-,N/A,,Clear,250,2014-01-19 12:15:00
6:35 AM,21.2,12.2,68,30.02,10.0,WSW,3.5,-,N/A,,Clear,250,2014-01-19 12:35:00
6:55 AM,24.8,14.0,64,30.02,10.0,West,3.5,-,N/A,,Clear,260,2014-01-19 12:55:00
7:15 AM,23.0,12.2,63,30.01,10.0,WSW,5.8,-,N/A,,Clear,240,2014-01-19 13:15:00
7:35 AM,21.2,12.2,68,30.01,10.0,WSW,9.2,-,N/A,,Clear,250,2014-01-19 13:35:00
7:55 AM,23.0,14.0,68,30.01,10.0,West,8.1,-,N/A,,Clear,270,2014-01-19 13:55:00
8:15 AM,24.8,14.0,64,30.00,10.0,WSW,12.7,-,N/A,,Clear,250,2014-01-19 14:15:00
8:35 AM,26.6,15.8,64,29.99,10.0,WSW,5.8,-,N/A,,Clear,250,2014-01-19 14:35:00
8:55 AM,28.4,17.6,64,29.99,10.0,West,6.9,-,N/A,,Clear,280,2014-01-19 14:55:00
9:15 AM,33.8,19.4,56,29.99,10.0,West,10.4,-,N/A,,Clear,260,2014-01-19 15:15:00
9:35 AM,33.8,17.6,52,29.98,10.0,WSW,8.1,-,N/A,,Clear,250,2014-01-19 15:35:00
9:55 AM,37.4,19.4,48,29.98,10.0,WSW,12.7,-,N/A,,Clear,240,2014-01-19 15:55:00
10:15 AM,41.0,19.4,42,29.97,10.0,WSW,12.7,-,N/A,,Clear,250,2014-01-19 16:15:00
10:35 AM,44.6,19.4,37,29.97,10.0,WSW,9.2,-,N/A,,Clear,250,2014-01-19 16:35:00
10:55 AM,48.2,21.2,34,29.97,10.0,West,10.4,-,N/A,,Clear,260,2014-01-19 16:55:00
11:15 AM,50.0,21.2,32,29.96,10.0,SW,11.5,-,N/A,,Clear,230,2014-01-19 17:15:00
11:35 AM,53.6,23.0,30,29.96,10.0,West,11.5,-,N/A,,Clear,260,2014-01-19 17:35:00
11:55 AM,55.4,23.0,29,29.95,10.0,West,9.2,-,N/A,,Clear,260,2014-01-19 17:55:00
12:15 PM,60.8,24.8,25,29.93,10.0,WNW,13.8,-,N/A,,Clear,290,2014-01-19 18:15:00
12:35 PM,60.8,24.8,25,29.92,10.0,West,11.5,-,N/A,,Clear,270,2014-01-19 18:35:00
12:55 PM,62.6,24.8,24,29.91,10.0,West,11.5,-,N/A,,Clear,270,2014-01-19 18:55:00
1:15 PM,64.4,24.8,22,29.90,10.0,West,10.4,-,N/A,,Clear,280,2014-01-19 19:15:00
1:35 PM,66.2,23.0,19,29.88,10.0,WNW,18.4,25.3,N/A,,Clear,300,2014-01-19 19:35:00
1:55 PM,66.2,21.2,18,29.87,10.0,WNW,17.3,23.0,N/A,,Clear,290,2014-01-19 19:55:00
2:15 PM,66.2,21.2,18,29.86,10.0,West,16.1,-,N/A,,Clear,280,2014-01-19 20:15:00
2:35 PM,68.0,21.2,17,29.86,10.0,WNW,15.0,-,N/A,,Clear,300,2014-01-19 20:35:00
2:55 PM,68.0,21.2,17,29.86,10.0,NW,12.7,-,N/A,,Clear,310,2014-01-19 20:55:00
3:15 PM,68.0,19.4,16,29.86,10.0,WNW,13.8,-,N/A,,Clear,300,2014-01-19 21:15:00
3:35 PM,68.0,21.2,17,29.86,10.0,WNW,13.8,-,N/A,,Clear,300,2014-01-19 21:35:00
3:55 PM,68.0,19.4,16,29.87,10.0,WNW,15.0,-,N/A,,Clear,300,2014-01-19 21:55:00
4:15 PM,68.0,19.4,16,29.87,10.0,WNW,12.7,-,N/A,,Clear,300,2014-01-19 22:15:00
4:35 PM,66.2,19.4,17,29.87,10.0,WNW,10.4,-,N/A,,Clear,300,2014-01-19 22:35:00
4:55 PM,66.2,19.4,17,29.87,10.0,WNW,9.2,-,N/A,,Clear,300,2014-01-19 22:55:00
5:15 PM,62.6,17.6,18,29.87,8.0,WNW,8.1,-,N/A,,Clear,290,2014-01-19 23:15:00
5:35 PM,59.0,17.6,20,29.87,10.0,WSW,5.8,-,N/A,,Clear,240,2014-01-19 23:35:00
5:55 PM,55.4,17.6,23,29.87,10.0,SW,8.1,-,N/A,,Clear,230,2014-01-19 23:55:00
6:15 PM,53.6,17.6,24,29.87,10.0,West,6.9,-,N/A,,Clear,260,2014-01-20 00:15:00
6:35 PM,51.8,15.8,24,29.88,10.0,West,6.9,-,N/A,,Clear,270,2014-01-20 00:35:00
6:55 PM,48.2,15.8,27,29.87,10.0,WSW,6.9,-,N/A,,Clear,240,2014-01-20 00:55:00
7:15 PM,46.4,15.8,29,29.87,10.0,West,5.8,-,N/A,,Clear,270,2014-01-20 01:15:00
7:35 PM,44.6,15.8,31,29.88,10.0,NW,5.8,-,N/A,,Clear,320,2014-01-20 01:35:00
7:55 PM,42.8,14.0,31,29.88,10.0,NNW,6.9,-,N/A,,Clear,330,2014-01-20 01:55:00
8:15 PM,41.0,15.8,36,29.88,10.0,WNW,5.8,-,N/A,,Clear,300,2014-01-20 02:15:00
8:35 PM,37.4,14.0,38,29.88,10.0,WNW,5.8,-,N/A,,Clear,290,2014-01-20 02:35:00
8:55 PM,39.2,17.6,42,29.88,10.0,NW,5.8,-,N/A,,Clear,310,2014-01-20 02:55:00
9:15 PM,39.2,15.8,39,29.88,10.0,NNW,4.6,-,N/A,,Clear,330,2014-01-20 03:15:00
9:35 PM,39.2,15.8,39,29.88,10.0,NNW,5.8,-,N/A,,Clear,330,2014-01-20 03:35:00
9:55 PM,33.8,12.2,41,29.88,10.0,NNW,6.9,-,N/A,,Clear,330,2014-01-20 03:55:00
10:15 PM,32.0,15.8,51,29.88,10.0,WSW,4.6,-,N/A,,Clear,240,2014-01-20 04:15:00
10:35 PM,33.8,14.0,44,29.87,10.0,WSW,5.8,-,N/A,,Clear,250,2014-01-20 04:35:00
10:55 PM,30.2,14.0,51,29.88,10.0,WNW,5.8,-,N/A,,Clear,300,2014-01-20 04:55:00
11:15 PM,30.2,15.8,55,29.88,10.0,WNW,5.8,-,N/A,,Clear,290,2014-01-20 05:15:00
11:35 PM,28.4,15.8,59,29.88,10.0,WNW,6.9,-,N/A,,Clear,290,2014-01-20 05:35:00
11:55 PM,28.4,14.0,55,29.90,10.0,North,9.2,-,N/A,,Clear,350,2014-01-20 05:55:00